Time;durP1;ratioP1;P1;durP2;ratioP2;P2;SDS_P1;SDS_P2;PMS_P1;PMS_P2;Temp;Humidity;BMP_temperature;BMP_pressure;BME280_temperature;BME280_humidity;BME280_pressure;Samples;Min_cycle;Max_cycle;Signal;HPM_P1;HPM_P2
2023/10/18 00:02:54;;;;;;;4.88;2.70;;;;;;;;;;4916855;29;20443;-72
2023/10/18 00:05:22;;;;;;;2.92;2.20;;;;;;;;;;4927500;29;20447;-72
2023/10/18 00:07:51;;;;;;;5.13;2.45;;;;;;;;;;4931807;29;20439;-71
2023/10/18 00:10:21;;;;;;;4.85;2.60;;;;;;;;;;4928556;29;20446;-71
2023/10/18 00:12:48;;;;;;;5.65;3.08;;;;;;;;;;4929509;29;20450;-71
2023/10/18 00:15:16;;;;;;;4.78;2.72;;;;;;;;;;4918721;29;20493;-71
2023/10/18 00:17:45;;;;;;;3.10;2.80;;;;;;;;;;4923845;29;20439;-71
2023/10/18 00:20:16;;;;;;;4.30;2.83;;;;;;;;;;4926921;29;20515;-72
2023/10/18 00:22:47;;;;;;;4.50;3.23;;;;;;;;;;4924442;29;20436;-71
2023/10/18 00:25:15;;;;;;;2.90;2.63;;;;;;;;;;4921830;29;20528;-72
2023/10/18 00:27:45;;;;;;;3.57;2.77;;;;;;;;;;4926790;29;20787;-72
2023/10/18 00:30:13;;;;;;;3.33;2.50;;;;;;;;;;4922026;29;20478;-72
2023/10/18 00:32:42;;;;;;;4.00;2.80;;;;;;;;;;4919963;29;20926;-72
2023/10/18 00:35:18;;;;;;;4.38;2.78;;;;;;;;;;4927025;29;20534;-72
2023/10/18 00:37:49;;;;;;;4.22;2.60;;;;;;;;;;4923410;29;20528;-70
2023/10/18 00:43:22;;;;;;;3.15;2.60;;;;;;;;;;4930464;29;20455;-72
2023/10/18 00:45:51;;;;;;;4.10;2.75;;;;;;;;;;4924495;29;20978;-71
2023/10/18 00:48:22;;;;;;;4.72;2.60;;;;;;;;;;4921788;29;20910;-70
2023/10/18 00:50:54;;;;;;;2.80;2.60;;;;;;;;;;4916528;29;20505;-72
2023/10/18 00:53:23;;;;;;;3.90;2.97;;;;;;;;;;4926404;29;20447;-72
2023/10/18 00:55:59;;;;;;;4.72;2.95;;;;;;;;;;4920999;29;20532;-72
2023/10/18 00:58:27;;;;;;;2.97;2.67;;;;;;;;;;4923888;29;20517;-71
2023/10/18 01:00:56;;;;;;;4.97;2.83;;;;;;;;;;4929214;29;20506;-73
2023/10/18 01:03:35;;;;;;;4.63;2.90;;;;;;;;;;4922257;29;20444;-72
2023/10/18 01:06:28;;;;;;;4.03;2.78;;;;;;;;;;4929014;29;20481;-71
2023/10/18 01:08:56;;;;;;;4.13;2.70;;;;;;;;;;4929267;29;20447;-72
2023/10/18 01:11:27;;;;;;;2.72;2.42;;;;;;;;;;4922351;29;20436;-72
2023/10/18 01:14:00;;;;;;;3.58;2.70;;;;;;;;;;4919973;29;20457;-71
2023/10/18 01:16:36;;;;;;;4.78;2.75;;;;;;;;;;4926542;29;20534;-72
2023/10/18 01:19:08;;;;;;;3.43;2.77;;;;;;;;;;4924611;29;20551;-72
2023/10/18 01:21:36;;;;;;;3.60;2.45;;;;;;;;;;4926830;29;20581;-72
2023/10/18 01:24:04;;;;;;;3.30;2.60;;;;;;;;;;4927185;29;20534;-71
2023/10/18 01:26:38;;;;;;;3.58;2.70;;;;;;;;;;4928364;29;20584;-71
2023/10/18 01:29:08;;;;;;;3.45;2.95;;;;;;;;;;4922282;29;20439;-72
2023/10/18 01:31:36;;;;;;;4.20;2.70;;;;;;;;;;4930411;29;20499;-72
2023/10/18 01:34:04;;;;;;;3.25;2.95;;;;;;;;;;4922884;29;20837;-71
2023/10/18 01:36:32;;;;;;;4.50;2.85;;;;;;;;;;4930097;29;20439;-72
2023/10/18 01:39:00;;;;;;;3.57;2.80;;;;;;;;;;4924684;29;20435;-72
2023/10/18 01:41:34;;;;;;;4.63;3.40;;;;;;;;;;4921339;29;20866;-72
2023/10/18 01:44:06;;;;;;;3.40;3.05;;;;;;;;;;4921510;29;20528;-72
2023/10/18 01:46:34;;;;;;;5.40;3.00;;;;;;;;;;4926020;29;20446;-72
2023/10/18 01:49:03;;;;;;;6.03;3.30;;;;;;;;;;4905055;29;20450;-72
2023/10/18 01:51:30;;;;;;;5.43;3.05;;;;;;;;;;4921900;29;20494;-71
2023/10/18 01:54:05;;;;;;;2.90;2.70;;;;;;;;;;4908814;29;20462;-71
2023/10/18 01:56:35;;;;;;;3.10;2.80;;;;;;;;;;4923257;29;20530;-71
2023/10/18 01:59:04;;;;;;;6.03;3.40;;;;;;;;;;4919688;29;20954;-72
2023/10/18 02:01:34;;;;;;;3.33;3.00;;;;;;;;;;4925781;29;20449;-71
2023/10/18 02:04:03;;;;;;;3.00;2.80;;;;;;;;;;4925416;29;20436;-72
2023/10/18 02:06:30;;;;;;;4.68;2.72;;;;;;;;;;4922520;29;20439;-71
2023/10/18 02:08:57;;;;;;;3.92;2.85;;;;;;;;;;4922287;29;20439;-71
2023/10/18 02:11:25;;;;;;;2.90;2.60;;;;;;;;;;4929107;29;20498;-69
2023/10/18 02:13:52;;;;;;;3.30;2.53;;;;;;;;;;4924682;29;20514;-71
2023/10/18 02:16:20;;;;;;;5.90;2.90;;;;;;;;;;4921579;29;20955;-71
2023/10/18 02:18:49;;;;;;;5.30;2.97;;;;;;;;;;4927904;29;20444;-69
2023/10/18 02:21:21;;;;;;;4.15;3.15;;;;;;;;;;4920460;29;20441;-72
2023/10/18 02:23:51;;;;;;;3.85;2.83;;;;;;;;;;4924771;29;20451;-71
2023/10/18 02:26:30;;;;;;;5.53;3.05;;;;;;;;;;4927124;29;20806;-72
2023/10/18 02:28:59;;;;;;;5.65;3.05;;;;;;;;;;4927397;29;20447;-71
2023/10/18 02:31:28;;;;;;;3.28;2.92;;;;;;;;;;4921606;29;20447;-71
2023/10/18 02:33:56;;;;;;;2.97;2.78;;;;;;;;;;4927507;29;20934;-72
2023/10/18 02:36:37;;;;;;;3.53;2.97;;;;;;;;;;4927799;29;20623;-72
2023/10/18 02:39:10;;;;;;;3.10;2.80;;;;;;;;;;4920894;29;20518;-71
2023/10/18 02:41:37;;;;;;;3.42;2.70;;;;;;;;;;4923473;29;20493;-71
2023/10/18 02:44:11;;;;;;;3.20;2.90;;;;;;;;;;4919107;29;20857;-72
2023/10/18 02:46:38;;;;;;;4.33;2.93;;;;;;;;;;4923968;29;20838;-72
2023/10/18 02:49:08;;;;;;;3.60;3.10;;;;;;;;;;4926963;29;20776;-72
2023/10/18 02:51:36;;;;;;;3.75;2.97;;;;;;;;;;4913654;29;20441;-71
2023/10/18 02:56:53;;;;;;;3.40;3.10;;;;;;;;;;4921518;29;20468;-72
2023/10/18 02:59:27;;;;;;;3.20;2.72;;;;;;;;;;4928866;29;20435;-71
2023/10/18 03:02:01;;;;;;;3.72;2.97;;;;;;;;;;4924720;29;20443;-71
2023/10/18 03:04:34;;;;;;;2.83;2.63;;;;;;;;;;4923088;29;20454;-72
2023/10/18 03:07:02;;;;;;;2.70;2.50;;;;;;;;;;4921144;29;20987;-72
2023/10/18 03:09:38;;;;;;;2.93;2.67;;;;;;;;;;4926113;29;20876;-72
2023/10/18 03:12:14;;;;;;;4.13;2.65;;;;;;;;;;4909837;29;20535;-73
2023/10/18 03:17:22;;;;;;;2.80;2.60;;;;;;;;;;4928568;29;20780;-72
2023/10/18 03:19:57;;;;;;;3.30;2.80;;;;;;;;;;4922565;29;20439;-71
2023/10/18 03:22:31;;;;;;;5.00;3.10;;;;;;;;;;4921382;29;20475;-72
2023/10/18 03:25:00;;;;;;;3.78;3.10;;;;;;;;;;4911388;29;20445;-72
2023/10/18 03:27:33;;;;;;;3.93;3.17;;;;;;;;;;4917838;29;20447;-72
2023/10/18 03:30:23;;;;;;;5.93;3.50;;;;;;;;;;4930638;29;20862;-72
2023/10/18 03:32:50;;;;;;;4.22;3.10;;;;;;;;;;4902804;29;20513;-72
2023/10/18 03:35:21;;;;;;;4.00;3.20;;;;;;;;;;4901974;29;20444;-71
2023/10/18 03:37:48;;;;;;;5.22;3.55;;;;;;;;;;4911716;29;20502;-72
2023/10/18 03:40:21;;;;;;;3.97;3.08;;;;;;;;;;4929232;29;20443;-72
2023/10/18 03:42:50;;;;;;;4.50;3.17;;;;;;;;;;4915371;29;20633;-72
2023/10/18 03:45:22;;;;;;;3.58;2.85;;;;;;;;;;4927381;29;20447;-72
2023/10/18 03:47:58;;;;;;;4.65;3.50;;;;;;;;;;4927123;29;20515;-72
2023/10/18 03:50:40;;;;;;;3.58;3.05;;;;;;;;;;4925640;29;20933;-72
2023/10/18 03:53:07;;;;;;;3.65;3.20;;;;;;;;;;4932095;29;20866;-72
2023/10/18 03:55:39;;;;;;;4.38;3.08;;;;;;;;;;4927870;29;20441;-72
2023/10/18 03:58:06;;;;;;;5.57;3.63;;;;;;;;;;4927298;29;20443;-72
2023/10/18 04:00:37;;;;;;;3.95;3.40;;;;;;;;;;4918641;29;20465;-72
2023/10/18 04:03:10;;;;;;;5.22;3.35;;;;;;;;;;4920933;29;20494;-72
2023/10/18 04:05:43;;;;;;;5.28;3.10;;;;;;;;;;4919714;29;20794;-72
2023/10/18 04:08:14;;;;;;;4.30;3.40;;;;;;;;;;4929459;29;20450;-72
2023/10/18 04:10:43;;;;;;;7.55;3.90;;;;;;;;;;4931690;29;20898;-69
2023/10/18 04:13:14;;;;;;;3.90;3.30;;;;;;;;;;4928785;29;20447;-71
2023/10/18 04:15:59;;;;;;;3.70;3.28;;;;;;;;;;4921944;29;20441;-72
2023/10/18 04:18:29;;;;;;;5.15;3.30;;;;;;;;;;4924084;29;20469;-71
2023/10/18 04:21:00;;;;;;;5.50;3.60;;;;;;;;;;4925009;29;20478;-71
2023/10/18 04:23:27;;;;;;;3.80;3.22;;;;;;;;;;4911331;29;20436;-72
2023/10/18 04:26:01;;;;;;;5.38;3.67;;;;;;;;;;4926940;29;20443;-71
2023/10/18 04:28:48;;;;;;;5.20;3.63;;;;;;;;;;4920883;29;20439;-72
2023/10/18 04:31:21;;;;;;;5.10;3.53;;;;;;;;;;4928353;29;20904;-71
2023/10/18 04:33:49;;;;;;;6.60;3.60;;;;;;;;;;4904727;29;20443;-74
2023/10/18 04:36:20;;;;;;;3.97;3.30;;;;;;;;;;4924973;29;20455;-72
2023/10/18 04:38:48;;;;;;;4.43;3.13;;;;;;;;;;4925377;29;20439;-71
2023/10/18 04:41:30;;;;;;;4.85;3.80;;;;;;;;;;4924418;29;20916;-70
2023/10/18 04:46:32;;;;;;;4.60;3.75;;;;;;;;;;4920580;29;20534;-72
2023/10/18 04:49:00;;;;;;;4.78;3.53;;;;;;;;;;4924890;29;20447;-71
2023/10/18 04:51:44;;;;;;;4.50;3.90;;;;;;;;;;4922979;29;20478;-72
2023/10/18 04:54:15;;;;;;;6.85;3.70;;;;;;;;;;4928337;29;20846;-71
2023/10/18 04:56:44;;;;;;;6.22;3.72;;;;;;;;;;4929380;29;20443;-71
2023/10/18 05:04:34;;;;;;;3.63;3.28;;;;;;;;;;4922167;29;20450;-71
2023/10/18 05:07:14;;;;;;;5.28;3.42;;;;;;;;;;4922069;29;20440;-73
2023/10/18 05:09:43;;;;;;;5.70;3.73;;;;;;;;;;4919120;29;20455;-72
2023/10/18 05:14:42;;;;;;;6.13;3.90;;;;;;;;;;4924453;29;20506;-71
2023/10/18 05:17:23;;;;;;;5.55;3.75;;;;;;;;;;4920817;29;20485;-71
2023/10/18 05:19:51;;;;;;;6.53;3.90;;;;;;;;;;4922541;29;22264;-71
2023/10/18 05:22:24;;;;;;;6.05;3.60;;;;;;;;;;4927020;29;20439;-71
2023/10/18 05:27:45;;;;;;;6.63;3.97;;;;;;;;;;4919773;29;20532;-72
2023/10/18 05:30:25;;;;;;;4.00;3.60;;;;;;;;;;4925511;29;20451;-72
2023/10/18 05:33:03;;;;;;;6.05;3.53;;;;;;;;;;4925639;29;20494;-71
2023/10/18 05:35:34;;;;;;;6.18;4.40;;;;;;;;;;4912552;29;20904;-71
2023/10/18 05:38:18;;;;;;;10.70;4.32;;;;;;;;;;4918976;29;20456;-70
2023/10/18 05:40:56;;;;;;;5.82;4.40;;;;;;;;;;4919104;29;20479;-71
2023/10/18 05:43:29;;;;;;;5.60;4.07;;;;;;;;;;4919760;29;20471;-71
2023/10/18 05:46:07;;;;;;;5.85;3.90;;;;;;;;;;4920225;29;20443;-71
2023/10/18 05:48:40;;;;;;;4.38;3.95;;;;;;;;;;4923359;29;20445;-70
2023/10/18 05:54:07;;;;;;;5.97;4.30;;;;;;;;;;4923355;29;20439;-70
2023/10/18 05:56:35;;;;;;;4.35;3.95;;;;;;;;;;4925386;29;20442;-71
2023/10/18 06:01:58;;;;;;;6.85;3.97;;;;;;;;;;4922779;29;20452;-72
2023/10/18 06:04:37;;;;;;;4.72;3.80;;;;;;;;;;4918137;29;20441;-72
2023/10/18 06:07:09;;;;;;;5.82;4.20;;;;;;;;;;4921876;29;20438;-70
2023/10/18 06:12:23;;;;;;;8.82;4.38;;;;;;;;;;4921238;29;20444;-71
2023/10/18 06:15:10;;;;;;;4.68;4.18;;;;;;;;;;4927767;29;20819;-71
2023/10/18 06:17:52;;;;;;;6.63;4.90;;;;;;;;;;4924194;29;20449;-72
2023/10/18 06:20:30;;;;;;;7.60;4.47;;;;;;;;;;4926420;29;20439;-70
2023/10/18 06:23:09;;;;;;;7.23;4.57;;;;;;;;;;4917343;29;20449;-71
2023/10/18 06:25:44;;;;;;;6.38;4.50;;;;;;;;;;4909225;29;22853;-70
2023/10/18 06:28:19;;;;;;;5.32;4.10;;;;;;;;;;4925345;29;20538;-71
2023/10/18 06:30:56;;;;;;;4.93;4.32;;;;;;;;;;4928960;29;20542;-71
2023/10/18 06:33:35;;;;;;;5.88;4.63;;;;;;;;;;4925664;29;20445;-72
2023/10/18 06:36:12;;;;;;;6.15;4.72;;;;;;;;;;4922920;29;20437;-70
2023/10/18 06:38:43;;;;;;;6.90;4.32;;;;;;;;;;4916557;29;20781;-72
2023/10/18 06:41:19;;;;;;;5.93;4.30;;;;;;;;;;4904975;29;20539;-70
2023/10/18 06:43:47;;;;;;;7.25;4.72;;;;;;;;;;4923350;29;20516;-72
2023/10/18 06:46:26;;;;;;;6.53;4.13;;;;;;;;;;4921085;29;20902;-71
2023/10/18 06:49:00;;;;;;;6.63;4.22;;;;;;;;;;4923803;29;20563;-71
2023/10/18 06:51:40;;;;;;;7.13;4.25;;;;;;;;;;4923488;29;20469;-71
2023/10/18 06:54:14;;;;;;;4.45;4.03;;;;;;;;;;4911880;29;20441;-72
2023/10/18 06:56:45;;;;;;;9.23;4.68;;;;;;;;;;4924292;29;20793;-70
2023/10/18 06:59:13;;;;;;;5.63;3.95;;;;;;;;;;4926797;29;20446;-71
2023/10/18 07:01:44;;;;;;;6.53;4.47;;;;;;;;;;4917708;29;20431;-71
2023/10/18 07:04:56;;;;;;;6.50;4.25;;;;;;;;;;4921310;29;22264;-71
2023/10/18 07:07:13;;;;;;;5.72;4.38;;;;;;;;;;4916370;29;20470;-70
2023/10/18 07:09:42;;;;;;;4.90;4.10;;;;;;;;;;4924129;29;20434;-69
2023/10/18 07:12:12;;;;;;;7.90;4.45;;;;;;;;;;4928312;29;20993;-71
2023/10/18 07:14:39;;;;;;;5.65;3.90;;;;;;;;;;4918160;29;20563;-68
2023/10/18 07:17:09;;;;;;;7.35;4.80;;;;;;;;;;4920869;29;20868;-69
2023/10/18 07:19:49;;;;;;;5.88;4.03;;;;;;;;;;4928107;29;20521;-71
2023/10/18 07:22:21;;;;;;;6.80;4.75;;;;;;;;;;4926781;29;20454;-69
2023/10/18 07:24:55;;;;;;;4.90;4.25;;;;;;;;;;4923805;29;20478;-70
2023/10/18 07:27:29;;;;;;;5.78;4.80;;;;;;;;;;4923508;29;20458;-69
2023/10/18 07:30:00;;;;;;;7.07;4.80;;;;;;;;;;4925829;29;20513;-71
2023/10/18 07:32:28;;;;;;;5.75;4.05;;;;;;;;;;4929271;29;20566;-71
2023/10/18 07:34:57;;;;;;;7.53;4.70;;;;;;;;;;4926152;29;21037;-71
2023/10/18 07:37:24;;;;;;;8.30;4.65;;;;;;;;;;4918389;29;20447;-71
2023/10/18 07:39:59;;;;;;;5.22;4.47;;;;;;;;;;4926295;29;20470;-69
2023/10/18 07:42:51;;;;;;;6.35;4.88;;;;;;;;;;4923687;29;20478;-70
2023/10/18 07:45:21;;;;;;;6.22;4.47;;;;;;;;;;4927116;29;20443;-69
2023/10/18 07:47:55;;;;;;;7.27;5.03;;;;;;;;;;4923925;29;20514;-69
2023/10/18 07:50:34;;;;;;;7.30;4.80;;;;;;;;;;4924805;29;20440;-70
2023/10/18 07:53:11;;;;;;;6.72;4.80;;;;;;;;;;4918200;29;20437;-68
2023/10/18 07:55:41;;;;;;;7.07;4.53;;;;;;;;;;4924192;29;20445;-70
2023/10/18 07:58:22;;;;;;;6.25;4.82;;;;;;;;;;4924869;29;20506;-70
2023/10/18 08:03:29;;;;;;;6.00;4.65;;;;;;;;;;4913811;29;20439;-66
2023/10/18 08:05:58;;;;;;;7.22;5.13;;;;;;;;;;4926258;29;20568;-69
2023/10/18 08:08:25;;;;;;;5.37;4.60;;;;;;;;;;4922537;29;20856;-67
2023/10/18 08:10:59;;;;;;;5.18;4.40;;;;;;;;;;4921033;29;20488;-68
2023/10/18 08:13:27;;;;;;;5.97;4.53;;;;;;;;;;4908466;29;20441;-68
2023/10/18 08:15:54;;;;;;;6.63;4.82;;;;;;;;;;4922835;29;20437;-67
2023/10/18 08:18:39;;;;;;;6.75;4.95;;;;;;;;;;4921464;29;20461;-66
2023/10/18 08:21:06;;;;;;;6.20;4.50;;;;;;;;;;4915649;29;20473;-68
2023/10/18 08:23:34;;;;;;;7.47;4.97;;;;;;;;;;4929070;29;20439;-68
2023/10/18 08:26:06;;;;;;;6.88;4.70;;;;;;;;;;4929828;29;20449;-70
2023/10/18 08:28:40;;;;;;;5.75;4.32;;;;;;;;;;4928099;29;20966;-69
2023/10/18 08:34:17;;;;;;;7.50;4.70;;;;;;;;;;4851453;29;20538;-69
2023/10/18 08:36:45;;;;;;;5.43;4.45;;;;;;;;;;4853477;29;20450;-68
2023/10/18 08:39:13;;;;;;;7.60;4.57;;;;;;;;;;4852437;29;20446;-72
2023/10/18 08:41:49;;;;;;;6.95;4.43;;;;;;;;;;4853093;29;20442;-69
2023/10/18 08:44:21;;;;;;;5.37;4.83;;;;;;;;;;4853315;29;20454;-69
2023/10/18 08:47:03;;;;;;;4.32;3.92;;;;;;;;;;4851923;29;20448;-69
2023/10/18 08:49:33;;;;;;;6.35;4.75;;;;;;;;;;4852189;29;20857;-67
2023/10/18 08:52:08;;;;;;;4.90;3.95;;;;;;;;;;4853305;29;20449;-72
2023/10/18 08:54:36;;;;;;;6.22;4.15;;;;;;;;;;4851875;29;20462;-71
2023/10/18 08:57:06;;;;;;;5.80;4.55;;;;;;;;;;4852927;29;20453;-70
2023/10/18 08:59:46;;;;;;;6.00;4.60;;;;;;;;;;4852867;29;20454;-67
2023/10/18 09:02:23;;;;;;;5.93;4.65;;;;;;;;;;4852057;29;20458;-70
2023/10/18 09:04:54;;;;;;;5.05;4.35;;;;;;;;;;4879559;29;20522;-70
2023/10/18 09:07:42;;;;;;;4.93;4.07;;;;;;;;;;4921820;29;20443;-69
2023/10/18 09:10:13;;;;;;;7.28;4.43;;;;;;;;;;4928368;29;20870;-67
2023/10/18 09:17:56;;;;;;;4.43;4.00;;;;;;;;;;4924161;29;20494;-70
2023/10/18 09:20:27;;;;;;;4.72;4.30;;;;;;;;;;4926584;29;20533;-68
2023/10/18 09:23:03;;;;;;;5.00;4.00;;;;;;;;;;4922761;29;20443;-69
2023/10/18 09:28:35;;;;;;;5.20;3.83;;;;;;;;;;4865686;29;20452;-63
2023/10/18 09:31:11;;;;;;;5.07;4.10;;;;;;;;;;4925109;29;20443;-63
2023/10/18 09:33:40;;;;;;;4.22;3.83;;;;;;;;;;4925937;29;20442;-63
2023/10/18 09:36:20;;;;;;;5.75;3.92;;;;;;;;;;4921023;29;20451;-63
2023/10/18 09:38:49;;;;;;;5.90;4.10;;;;;;;;;;4925431;29;20443;-62
2023/10/18 09:41:17;;;;;;;4.85;4.35;;;;;;;;;;4924143;29;20530;-62
2023/10/18 09:43:46;;;;;;;5.05;4.05;;;;;;;;;;4920943;29;20447;-63
2023/10/18 09:46:14;;;;;;;6.22;3.70;;;;;;;;;;4929284;29;20846;-64
2023/10/18 09:48:43;;;;;;;4.10;3.70;;;;;;;;;;4914626;29;20443;-63
2023/10/18 09:51:14;;;;;;;5.60;4.18;;;;;;;;;;4927719;29;20462;-62
2023/10/18 09:53:43;;;;;;;5.38;3.85;;;;;;;;;;4925835;29;21175;-63
2023/10/18 09:56:14;;;;;;;6.13;4.10;;;;;;;;;;4922562;29;20829;-63
2023/10/18 09:58:51;;;;;;;4.45;3.55;;;;;;;;;;4922263;29;20449;-63
2023/10/18 10:01:53;;;;;;;5.53;4.00;;;;;;;;;;4924966;29;22122;-63
2023/10/18 10:04:18;;;;;;;4.82;3.80;;;;;;;;;;4922237;29;21045;-63
2023/10/18 10:06:55;;;;;;;6.13;3.72;;;;;;;;;;4915075;29;20523;-63
2023/10/18 10:09:38;;;;;;;5.38;3.65;;;;;;;;;;4923278;29;20454;-63
2023/10/18 10:12:11;;;;;;;5.20;3.33;;;;;;;;;;4924195;29;20450;-63
2023/10/18 10:14:38;;;;;;;5.95;3.60;;;;;;;;;;4927875;29;20435;-63
2023/10/18 10:17:08;;;;;;;5.20;3.72;;;;;;;;;;4923528;29;20869;-63
2023/10/18 10:19:40;;;;;;;3.65;3.28;;;;;;;;;;4921751;29;20447;-63
2023/10/18 10:22:09;;;;;;;7.10;3.63;;;;;;;;;;4921746;29;20550;-63
2023/10/18 10:24:42;;;;;;;3.40;3.08;;;;;;;;;;4923500;29;20506;-63
2023/10/18 10:32:52;;;;;;;3.45;2.88;;;;;;;;;;4921866;29;20444;-61
2023/10/18 10:35:24;;;;;;;3.67;3.37;;;;;;;;;;4924132;29;20448;-61
2023/10/18 10:37:52;;;;;;;3.83;3.08;;;;;;;;;;4914750;29;20516;-61
2023/10/18 10:43:09;;;;;;;3.97;2.83;;;;;;;;;;4926870;29;20443;-61
2023/10/18 10:48:16;;;;;;;3.67;2.58;;;;;;;;;;4916724;29;20439;-61
2023/10/18 10:50:53;;;;;;;4.63;3.15;;;;;;;;;;4927163;29;20443;-64
2023/10/18 10:53:34;;;;;;;4.10;3.33;;;;;;;;;;4917723;29;20446;-64
2023/10/18 10:56:06;;;;;;;3.40;2.60;;;;;;;;;;4918755;29;20504;-63
2023/10/18 10:58:38;;;;;;;3.25;2.85;;;;;;;;;;4920867;29;20496;-64
2023/10/18 11:01:12;;;;;;;3.20;2.72;;;;;;;;;;4926239;29;20443;-63
2023/10/18 11:03:52;;;;;;;5.03;3.08;;;;;;;;;;4926681;29;20461;-63
2023/10/18 11:06:21;;;;;;;4.25;2.83;;;;;;;;;;4920949;29;20439;-65
2023/10/18 11:08:50;;;;;;;6.03;2.78;;;;;;;;;;4910202;29;20466;-63
2023/10/18 11:11:20;;;;;;;3.30;2.60;;;;;;;;;;4926113;29;20439;-65
2023/10/18 11:13:51;;;;;;;2.70;2.50;;;;;;;;;;4925739;29;20431;-63
2023/10/18 11:16:22;;;;;;;2.75;2.55;;;;;;;;;;4915972;29;20431;-63
2023/10/18 11:18:55;;;;;;;3.80;2.55;;;;;;;;;;4918839;29;20440;-63
2023/10/18 11:21:28;;;;;;;3.15;2.85;;;;;;;;;;4922826;29;20455;-63
2023/10/18 11:24:04;;;;;;;3.23;2.63;;;;;;;;;;4898860;29;20479;-63
2023/10/18 11:26:39;;;;;;;3.55;2.63;;;;;;;;;;4921013;29;20451;-63
2023/10/18 11:29:06;;;;;;;2.60;2.30;;;;;;;;;;4914944;29;20483;-62
2023/10/18 11:31:44;;;;;;;2.53;2.33;;;;;;;;;;4924360;29;20458;-63
2023/10/18 11:34:15;;;;;;;3.63;2.67;;;;;;;;;;4921152;29;20474;-62
2023/10/18 11:36:42;;;;;;;3.47;2.28;;;;;;;;;;4923626;29;20446;-61
2023/10/18 11:41:44;;;;;;;2.83;2.37;;;;;;;;;;4927361;29;20584;-61
2023/10/18 11:44:20;;;;;;;3.78;2.10;;;;;;;;;;4900162;29;20443;-62
2023/10/18 11:46:51;;;;;;;3.17;2.20;;;;;;;;;;4923667;29;20440;-62
2023/10/18 11:49:19;;;;;;;4.90;2.10;;;;;;;;;;4923036;29;20439;-62
2023/10/18 11:51:48;;;;;;;3.80;2.40;;;;;;;;;;4929188;29;20529;-63
2023/10/18 11:54:28;;;;;;;2.60;2.40;;;;;;;;;;4930627;29;20930;-61
2023/10/18 11:56:56;;;;;;;2.38;2.15;;;;;;;;;;4924407;29;21173;-62
2023/10/18 11:59:31;;;;;;;2.25;2.10;;;;;;;;;;4926655;29;20534;-62
2023/10/18 12:02:06;;;;;;;2.72;2.50;;;;;;;;;;4923554;29;20447;-62
2023/10/18 12:04:40;;;;;;;3.03;2.17;;;;;;;;;;4931049;29;21190;-63
2023/10/18 12:07:08;;;;;;;2.50;2.30;;;;;;;;;;4922420;29;20519;-62
2023/10/18 12:09:45;;;;;;;3.87;2.20;;;;;;;;;;4920902;29;20447;-62
2023/10/18 12:12:13;;;;;;;2.67;2.47;;;;;;;;;;4922697;29;20445;-62
2023/10/18 12:14:42;;;;;;;3.22;2.55;;;;;;;;;;4922391;29;20475;-63
2023/10/18 12:17:15;;;;;;;4.63;1.93;;;;;;;;;;4919575;29;20443;-63
2023/10/18 12:19:46;;;;;;;2.33;2.13;;;;;;;;;;4921490;29;20496;-62
2023/10/18 12:22:15;;;;;;;3.60;2.45;;;;;;;;;;4926340;29;20439;-62
2023/10/18 12:24:42;;;;;;;3.65;2.38;;;;;;;;;;4931367;29;20443;-62
2023/10/18 12:29:59;;;;;;;3.03;2.13;;;;;;;;;;4919749;29;20451;-63
2023/10/18 12:32:26;;;;;;;5.20;2.17;;;;;;;;;;4921520;29;20481;-62
2023/10/18 12:34:57;;;;;;;2.85;2.33;;;;;;;;;;4927326;29;20538;-62
2023/10/18 12:37:25;;;;;;;3.35;2.35;;;;;;;;;;4930601;29;20919;-62
2023/10/18 12:39:57;;;;;;;3.13;2.42;;;;;;;;;;4906108;29;20437;-63
2023/10/18 12:42:25;;;;;;;2.95;2.13;;;;;;;;;;4924977;29;20451;-63
2023/10/18 12:44:59;;;;;;;3.83;2.60;;;;;;;;;;4926432;29;20496;-65
2023/10/18 12:47:28;;;;;;;2.17;2.00;;;;;;;;;;4922192;29;20834;-62
2023/10/18 12:49:56;;;;;;;4.70;2.10;;;;;;;;;;4920899;29;20444;-62
2023/10/18 12:55:32;;;;;;;3.42;2.40;;;;;;;;;;4915448;29;20433;-63
2023/10/18 12:57:54;;;;;;;2.25;2.00;;;;;;;;;;4923521;29;20441;-63
2023/10/18 13:00:25;;;;;;;2.50;2.00;;;;;;;;;;4927252;29;20435;-63
2023/10/18 13:05:40;;;;;;;2.55;2.30;;;;;;;;;;4930126;29;20441;-63
2023/10/18 13:08:22;;;;;;;3.08;1.92;;;;;;;;;;4926204;29;20463;-63
2023/10/18 13:11:44;;;;;;;2.13;1.88;;;;;;;;;;4920364;29;20467;-63
2023/10/18 13:13:48;;;;;;;2.83;2.20;;;;;;;;;;4921828;29;20798;-63
2023/10/18 13:16:16;;;;;;;2.30;2.10;;;;;;;;;;4916989;29;20441;-63
2023/10/18 13:18:44;;;;;;;2.20;2.00;;;;;;;;;;4909457;29;20960;-63
2023/10/18 13:21:15;;;;;;;4.30;2.27;;;;;;;;;;4923662;29;20443;-62
2023/10/18 13:23:46;;;;;;;2.13;2.03;;;;;;;;;;4907632;29;20435;-63
2023/10/18 13:26:19;;;;;;;2.50;1.73;;;;;;;;;;4923430;29;20447;-63
2023/10/18 13:31:30;;;;;;;3.00;2.00;;;;;;;;;;4922740;29;20441;-63
2023/10/18 13:33:59;;;;;;;3.07;2.00;;;;;;;;;;4921707;29;20445;-63
2023/10/18 13:36:26;;;;;;;2.90;1.90;;;;;;;;;;4930393;29;20898;-63
2023/10/18 13:38:55;;;;;;;2.40;2.20;;;;;;;;;;4921108;29;20447;-63
2023/10/18 13:41:23;;;;;;;2.53;1.83;;;;;;;;;;4923968;29;20441;-63
2023/10/18 13:43:55;;;;;;;1.92;1.70;;;;;;;;;;4921805;29;20443;-63
2023/10/18 13:46:23;;;;;;;3.22;2.13;;;;;;;;;;4923140;29;20449;-64
2023/10/18 13:48:50;;;;;;;2.20;1.90;;;;;;;;;;4923847;29;20454;-63
2023/10/18 13:51:21;;;;;;;2.58;2.00;;;;;;;;;;4926569;29;20520;-63
2023/10/18 13:53:51;;;;;;;2.40;1.80;;;;;;;;;;4926529;29;20443;-63
2023/10/18 13:56:21;;;;;;;3.40;1.75;;;;;;;;;;4925012;29;20916;-63
2023/10/18 13:58:48;;;;;;;2.83;1.80;;;;;;;;;;4917167;29;20441;-64
2023/10/18 14:01:22;;;;;;;5.20;2.10;;;;;;;;;;4921508;29;20471;-63
2023/10/18 14:03:51;;;;;;;2.05;1.65;;;;;;;;;;4926597;29;20457;-63
2023/10/18 14:06:18;;;;;;;2.88;2.10;;;;;;;;;;4922460;29;20441;-63
2023/10/18 14:08:46;;;;;;;;;;;;;;;;;;4858659;29;20516;-63
2023/10/18 14:11:13;;;;;;;;;;;;;;;;;;4831584;29;25088;-63
2023/10/18 14:13:40;;;;;;;;;;;;;;;;;;4836345;29;26116;-63
2023/10/18 14:16:12;;;;;;;;;;;;;;;;;;4834041;29;27083;-63
2023/10/18 14:18:46;;;;;;;;;;;;;;;;;;4832633;29;29117;-62
2023/10/18 14:21:13;;;;;;;;;;;;;;;;;;4759321;29;388171;-63
2023/10/18 14:23:40;;;;;;;;;;;;;;;;;;4830243;29;25068;-63
2023/10/18 14:26:07;;;;;;;;;;;;;;;;;;4791726;29;215173;-62
2023/10/18 14:28:40;;;;;;;;;;;;;;;;;;4826029;29;26141;-63
2023/10/18 14:31:07;;;;;;;;;;;;;;;;;;4823994;29;25095;-63
2023/10/18 14:33:34;;;;;;;;;;;;;;;;;;4840289;29;27073;-62
2023/10/18 14:36:02;;;;;;;;;;;;;;;;;;4837640;29;29075;-63
2023/10/18 14:38:29;;;;;;;;;;;;;;;;;;4836750;29;28096;-63
2023/10/18 14:40:56;;;;;;;;;;;;;;;;;;4833282;29;28130;-63
2023/10/18 14:43:34;;;;;;;;;;;;;;;;;;4824994;29;29096;-63
2023/10/18 14:46:01;;;;;;;;;;;;;;;;;;4830323;29;25087;-63
2023/10/18 14:48:28;;;;;;;;;;;;;;;;;;4825354;29;27057;-62
2023/10/18 14:50:55;;;;;;;;;;;;;;;;;;4831024;29;29118;-63
2023/10/18 14:53:22;;;;;;;;;;;;;;;;;;4836047;29;29238;-63
2023/10/18 14:55:52;;;;;;;;;;;;;;;;;;4820012;29;75173;-63
2023/10/18 14:58:23;;;;;;;;;;;;;;;;;;4830330;29;25061;-63
2023/10/18 15:00:51;;;;;;;;;;;;;;;;;;4808270;29;234165;-63
2023/10/18 15:03:22;;;;;;;;;;;;;;;;;;4832546;29;28080;-63
2023/10/18 15:05:49;;;;;;;;;;;;;;;;;;4827063;29;25079;-63
2023/10/18 15:08:17;;;;;;;;;;;;;;;;;;4839623;29;26061;-63
2023/10/18 15:10:49;;;;;;;;;;;;;;;;;;4836987;29;27115;-62
2023/10/18 15:13:19;;;;;;;;;;;;;;;;;;4820034;29;274195;-63
2023/10/18 15:15:46;;;;;;;;;;;;;;;;;;4824820;29;30301;-63
2023/10/18 15:18:14;;;;;;;;;;;;;;;;;;4831215;29;28069;-63
2023/10/18 15:20:43;;;;;;;;;;;;;;;;;;4833984;29;27158;-62
2023/10/18 15:23:13;;;;;;;;;;;;;;;;;;4836656;29;29134;-62
2023/10/18 15:25:41;;;;;;;;;;;;;;;;;;4839389;29;26077;-63
2023/10/18 15:28:08;;;;;;;;;;;;;;;;;;4829767;29;25095;-63
2023/10/18 15:30:38;;;;;;;;;;;;;;;;;;4834892;29;28060;-63
2023/10/18 15:33:09;;;;;;;;;;;;;;;;;;4832791;29;25065;-63
2023/10/18 15:35:37;;;;;;;;;;;;;;;;;;4834284;29;28096;-63
2023/10/18 15:38:10;;;;;;;;;;;;;;;;;;4831987;29;28094;-63
2023/10/18 15:40:38;;;;;;;;;;;;;;;;;;4832950;29;26144;-62
2023/10/18 15:43:07;;;;;;;;;;;;;;;;;;4830801;29;29081;-63
2023/10/18 15:45:34;;;;;;;;;;;;;;;;;;4837396;29;29079;-62
2023/10/18 15:48:05;;;;;;;;;;;;;;;;;;4832512;29;26153;-62
2023/10/18 15:50:35;;;;;;;;;;;;;;;;;;4836514;29;25243;-63
2023/10/18 15:53:07;;;;;;;;;;;;;;;;;;4832376;29;26129;-63
2023/10/18 15:55:35;;;;;;;;;;;;;;;;;;4839299;29;28076;-63
2023/10/18 15:58:04;;;;;;;;;;;;;;;;;;4833486;29;27102;-63
2023/10/18 16:00:31;;;;;;;;;;;;;;;;;;4835479;29;26138;-62
2023/10/18 16:03:03;;;;;;;;;;;;;;;;;;4831264;29;28149;-63
2023/10/18 16:05:31;;;;;;;;;;;;;;;;;;4828726;29;28094;-63
2023/10/18 16:07:58;;;;;;;;;;;;;;;;;;4838712;29;26185;-63
2023/10/18 16:10:25;;;;;;;;;;;;;;;;;;4835876;29;28165;-62
2023/10/18 16:12:53;;;;;;;;;;;;;;;;;;4833249;29;25068;-62
2023/10/18 16:15:27;;;;;;;;;;;;;;;;;;4829540;29;25073;-62
2023/10/18 16:17:54;;;;;;;;;;;;;;;;;;4832858;29;27167;-62
2023/10/18 16:20:26;;;;;;;;;;;;;;;;;;4835851;29;25055;-62
2023/10/18 16:22:56;;;;;;;;;;;;;;;;;;4835526;29;29055;-62
2023/10/18 16:25:23;;;;;;;;;;;;;;;;;;4841173;29;27121;-63
2023/10/18 16:27:51;;;;;;;;;;;;;;;;;;4834212;29;25146;-63
2023/10/18 16:30:21;;;;;;;;;;;;;;;;;;4835065;29;28159;-62
2023/10/18 16:32:48;;;;;;;;;;;;;;;;;;4833339;29;26131;-62
2023/10/18 16:35:18;;;;;;;;;;;;;;;;;;4832537;29;27217;-62
2023/10/18 16:37:46;;;;;;;;;;;;;;;;;;4838583;29;26160;-62